Time;durP1;ratioP1;P1;durP2;ratioP2;P2;SDS_P1;SDS_P2;PMS_P1;PMS_P2;Temp;Humidity;BMP_temperature;BMP_pressure;BME280_temperature;BME280_humidity;BME280_pressure;Samples;Min_cycle;Max_cycle;Signal;HPM_P1;HPM_P2
2023/07/28 00:01:37;;;;;;;36.10;7.75;;;;;;;;;;5004147;28;20057;-73
2023/07/28 00:04:06;;;;;;;25.17;7.78;;;;;;;;;;5004966;28;20053;-73
2023/07/28 00:06:33;;;;;;;29.13;8.13;;;;;;;;;;5001521;28;20137;-73
2023/07/28 00:08:59;;;;;;;22.67;8.18;;;;;;;;;;5005100;28;20057;-74
2023/07/28 00:11:25;;;;;;;26.40;8.68;;;;;;;;;;5027146;28;20437;-73
2023/07/28 00:13:51;;;;;;;31.67;8.85;;;;;;;;;;5000344;28;20046;-73
2023/07/28 00:16:17;;;;;;;27.77;7.75;;;;;;;;;;4999567;28;20053;-73
2023/07/28 00:18:43;;;;;;;25.80;8.52;;;;;;;;;;5001929;28;20466;-73
2023/07/28 00:21:09;;;;;;;28.77;8.32;;;;;;;;;;5009403;28;20508;-73
2023/07/28 00:23:35;;;;;;;31.98;9.43;;;;;;;;;;5010212;28;20796;-73
2023/07/28 00:26:01;;;;;;;26.90;8.02;;;;;;;;;;5011799;28;20046;-73
2023/07/28 00:28:27;;;;;;;31.65;8.45;;;;;;;;;;4992317;28;20050;-73
2023/07/28 00:30:53;;;;;;;34.85;8.02;;;;;;;;;;5010759;28;20089;-73
2023/07/28 00:33:19;;;;;;;24.48;7.32;;;;;;;;;;5009444;28;20049;-73
2023/07/28 00:35:45;;;;;;;30.85;8.45;;;;;;;;;;5009567;28;20397;-73
2023/07/28 00:38:11;;;;;;;26.35;7.75;;;;;;;;;;5011020;28;20065;-73
2023/07/28 00:40:37;;;;;;;30.48;8.35;;;;;;;;;;5009737;28;20049;-73
2023/07/28 00:43:03;;;;;;;32.58;8.65;;;;;;;;;;5011674;28;20430;-73
2023/07/28 00:45:31;;;;;;;32.75;7.72;;;;;;;;;;5010541;28;20042;-73
2023/07/28 00:47:57;;;;;;;29.17;7.93;;;;;;;;;;5009273;28;20042;-73
2023/07/28 00:50:24;;;;;;;26.98;8.10;;;;;;;;;;5012880;28;20080;-73
2023/07/28 00:52:50;;;;;;;20.17;7.38;;;;;;;;;;4999471;28;20168;-73
2023/07/28 00:55:16;;;;;;;26.38;7.43;;;;;;;;;;5008672;28;20108;-73
2023/07/28 00:57:42;;;;;;;30.70;7.85;;;;;;;;;;5026726;28;20046;-73
2023/07/28 01:00:09;;;;;;;25.85;7.65;;;;;;;;;;5011133;28;20453;-74
2023/07/28 01:02:36;;;;;;;23.88;7.32;;;;;;;;;;5008764;28;20425;-73
2023/07/28 01:05:02;;;;;;;24.38;7.47;;;;;;;;;;5007288;28;20042;-73
2023/07/28 01:07:34;;;;;;;32.25;7.57;;;;;;;;;;5010874;28;20045;-73
2023/07/28 01:10:08;;;;;;;26.45;7.38;;;;;;;;;;5011073;28;20056;-73
2023/07/28 01:12:34;;;;;;;24.27;8.23;;;;;;;;;;5006848;28;20044;-73
2023/07/28 01:15:00;;;;;;;29.80;7.47;;;;;;;;;;4992906;28;20046;-72
2023/07/28 01:17:26;;;;;;;24.02;7.10;;;;;;;;;;5003330;28;20372;-73
2023/07/28 01:19:53;;;;;;;27.40;7.25;;;;;;;;;;5008277;28;20096;-73
2023/07/28 01:22:34;;;;;;;29.23;7.07;;;;;;;;;;5002073;28;20133;-73
2023/07/28 01:25:19;;;;;;;20.98;6.95;;;;;;;;;;5011856;28;20489;-73
2023/07/28 01:27:46;;;;;;;20.90;6.82;;;;;;;;;;5009832;28;20066;-73
2023/07/28 01:30:12;;;;;;;26.05;7.35;;;;;;;;;;5009868;28;20053;-73
2023/07/28 01:32:38;;;;;;;26.25;6.85;;;;;;;;;;5006741;28;20164;-73
2023/07/28 01:35:04;;;;;;;17.60;6.35;;;;;;;;;;5000372;28;20128;-73
2023/07/28 01:37:30;;;;;;;24.27;7.80;;;;;;;;;;4998955;28;20397;-73
2023/07/28 01:39:57;;;;;;;25.90;6.70;;;;;;;;;;5009427;28;20050;-73
2023/07/28 01:42:23;;;;;;;21.55;6.82;;;;;;;;;;5003196;28;20121;-73
2023/07/28 01:44:50;;;;;;;18.85;6.63;;;;;;;;;;5000368;28;20088;-73
2023/07/28 01:47:16;;;;;;;18.40;7.38;;;;;;;;;;5001909;28;20086;-73
2023/07/28 01:49:42;;;;;;;18.67;6.35;;;;;;;;;;5003791;28;20046;-72
2023/07/28 01:52:08;;;;;;;15.70;5.60;;;;;;;;;;4995409;28;20100;-73
2023/07/28 01:54:34;;;;;;;14.05;5.47;;;;;;;;;;5006829;28;20034;-73
2023/07/28 01:57:00;;;;;;;18.60;6.00;;;;;;;;;;5009424;28;20112;-73
2023/07/28 01:59:26;;;;;;;16.42;6.10;;;;;;;;;;5008743;28;20688;-73
2023/07/28 02:01:52;;;;;;;16.05;5.82;;;;;;;;;;5007541;28;20053;-73
2023/07/28 02:04:18;;;;;;;21.05;6.50;;;;;;;;;;5011365;28;20502;-73
2023/07/28 02:06:44;;;;;;;17.23;6.38;;;;;;;;;;5009179;28;20128;-73
2023/07/28 02:09:10;;;;;;;21.90;6.18;;;;;;;;;;5008416;28;20164;-73
2023/07/28 02:11:36;;;;;;;21.15;6.07;;;;;;;;;;5003249;28;20142;-73
2023/07/28 02:14:02;;;;;;;18.20;5.75;;;;;;;;;;5010303;28;20081;-73
2023/07/28 02:16:30;;;;;;;16.73;5.88;;;;;;;;;;5002242;28;20543;-73
2023/07/28 02:18:56;;;;;;;19.00;5.60;;;;;;;;;;5007973;28;20096;-73
2023/07/28 02:21:22;;;;;;;20.63;6.18;;;;;;;;;;5012551;28;20046;-73
2023/07/28 02:23:49;;;;;;;19.63;5.95;;;;;;;;;;5010591;28;20038;-73
2023/07/28 02:26:15;;;;;;;15.32;5.45;;;;;;;;;;5009593;28;20046;-73
2023/07/28 02:28:41;;;;;;;13.50;5.55;;;;;;;;;;5008216;28;20399;-73
2023/07/28 02:31:07;;;;;;;13.25;5.38;;;;;;;;;;5026052;28;20538;-73
2023/07/28 02:33:36;;;;;;;18.83;5.90;;;;;;;;;;5011160;28;20132;-73
2023/07/28 02:36:02;;;;;;;18.58;5.60;;;;;;;;;;5008038;28;20081;-73
2023/07/28 02:38:28;;;;;;;11.30;4.80;;;;;;;;;;4996504;28;20054;-73
2023/07/28 02:40:54;;;;;;;10.02;4.97;;;;;;;;;;5009572;28;20512;-73
2023/07/28 02:43:20;;;;;;;12.93;5.15;;;;;;;;;;5003730;28;20042;-73
2023/07/28 02:45:54;;;;;;;11.38;4.43;;;;;;;;;;5012566;28;20053;-73
2023/07/28 02:48:21;;;;;;;12.30;5.28;;;;;;;;;;5014044;28;20088;-73
2023/07/28 02:50:47;;;;;;;11.23;4.82;;;;;;;;;;5012785;28;20506;-73
2023/07/28 02:53:13;;;;;;;11.80;4.75;;;;;;;;;;5012836;28;20398;-73
2023/07/28 02:55:46;;;;;;;11.25;5.15;;;;;;;;;;5013560;28;20131;-73
2023/07/28 02:58:12;;;;;;;11.75;4.68;;;;;;;;;;5009864;28;20046;-73
2023/07/28 03:00:39;;;;;;;12.85;4.93;;;;;;;;;;5012669;28;20386;-73
2023/07/28 03:03:06;;;;;;;10.23;4.90;;;;;;;;;;5013439;28;20042;-73
2023/07/28 03:05:32;;;;;;;10.75;4.45;;;;;;;;;;5003743;28;20128;-73
2023/07/28 03:07:59;;;;;;;15.63;4.72;;;;;;;;;;5014526;28;20050;-73
2023/07/28 03:10:25;;;;;;;11.60;4.55;;;;;;;;;;5021939;28;20046;-73
2023/07/28 03:12:51;;;;;;;12.27;4.32;;;;;;;;;;5004768;28;20050;-73
2023/07/28 03:15:17;;;;;;;13.15;5.38;;;;;;;;;;5012518;28;20121;-73
2023/07/28 03:17:43;;;;;;;11.65;4.88;;;;;;;;;;5011493;28;20046;-73
2023/07/28 03:20:10;;;;;;;12.40;4.50;;;;;;;;;;5006565;28;20044;-73
2023/07/28 03:22:36;;;;;;;14.60;5.60;;;;;;;;;;5011793;28;20054;-73
2023/07/28 03:25:03;;;;;;;9.45;4.45;;;;;;;;;;5011531;28;20050;-73
2023/07/28 03:27:29;;;;;;;15.32;5.38;;;;;;;;;;5008256;28;20062;-73
2023/07/28 03:29:55;;;;;;;14.10;5.00;;;;;;;;;;5010574;28;20397;-73
2023/07/28 03:32:21;;;;;;;12.70;4.75;;;;;;;;;;5010485;28;20677;-73
2023/07/28 03:34:47;;;;;;;16.10;5.60;;;;;;;;;;5010397;28;20161;-73
2023/07/28 03:37:13;;;;;;;11.82;4.32;;;;;;;;;;5012736;28;20112;-73
2023/07/28 03:39:39;;;;;;;12.15;5.00;;;;;;;;;;5009937;28;20077;-73
2023/07/28 03:42:05;;;;;;;14.30;5.53;;;;;;;;;;5009198;28;20054;-73
2023/07/28 03:44:31;;;;;;;13.75;5.63;;;;;;;;;;5010000;28;20458;-73
2023/07/28 03:46:57;;;;;;;9.55;5.40;;;;;;;;;;5004843;28;20084;-73
2023/07/28 03:49:23;;;;;;;12.15;5.65;;;;;;;;;;5012483;28;20045;-73
2023/07/28 03:51:49;;;;;;;11.80;5.85;;;;;;;;;;5011100;28;20100;-73
2023/07/28 03:54:15;;;;;;;11.23;6.55;;;;;;;;;;5012790;28;20386;-72
2023/07/28 03:56:41;;;;;;;12.55;6.57;;;;;;;;;;5010186;28;20057;-73
2023/07/28 03:59:07;;;;;;;8.82;6.30;;;;;;;;;;5005814;28;20045;-73
2023/07/28 04:01:33;;;;;;;11.98;7.28;;;;;;;;;;5017787;28;20038;-73
2023/07/28 04:04:03;;;;;;;18.33;7.85;;;;;;;;;;5010859;28;20486;-73
2023/07/28 04:06:53;;;;;;;12.00;7.85;;;;;;;;;;5011234;28;20394;-73
2023/07/28 04:09:19;;;;;;;16.50;8.48;;;;;;;;;;5012285;28;20120;-73
2023/07/28 04:11:45;;;;;;;13.00;8.60;;;;;;;;;;5011195;28;20125;-73
2023/07/28 04:14:12;;;;;;;17.27;9.18;;;;;;;;;;5006747;28;20042;-73
2023/07/28 04:16:38;;;;;;;14.10;8.60;;;;;;;;;;5012339;28;20049;-73
2023/07/28 04:19:04;;;;;;;14.27;8.90;;;;;;;;;;5009490;28;20396;-73
2023/07/28 04:21:30;;;;;;;11.52;9.32;;;;;;;;;;5003481;28;20535;-73
2023/07/28 04:23:56;;;;;;;19.60;9.70;;;;;;;;;;5011419;28;20393;-73
2023/07/28 04:26:22;;;;;;;13.75;8.65;;;;;;;;;;5011760;28;20041;-72
2023/07/28 04:28:48;;;;;;;13.77;10.60;;;;;;;;;;5010618;28;20065;-73
2023/07/28 04:31:14;;;;;;;13.13;10.52;;;;;;;;;;5027840;28;20057;-73
2023/07/28 04:33:43;;;;;;;13.90;9.73;;;;;;;;;;5001601;28;20050;-73
2023/07/28 04:36:10;;;;;;;13.20;9.52;;;;;;;;;;5006931;28;20433;-73
2023/07/28 04:38:36;;;;;;;12.60;9.80;;;;;;;;;;5002625;28;20042;-73
2023/07/28 04:41:02;;;;;;;12.60;10.35;;;;;;;;;;5001527;28;20508;-73
2023/07/28 04:43:28;;;;;;;13.27;10.30;;;;;;;;;;5010518;28;20046;-73
2023/07/28 04:45:54;;;;;;;10.52;9.45;;;;;;;;;;5012460;28;20045;-73
2023/07/28 04:48:20;;;;;;;18.05;10.13;;;;;;;;;;5011063;28;20046;-73
2023/07/28 04:50:46;;;;;;;12.73;9.93;;;;;;;;;;5011247;28;20112;-73
2023/07/28 04:53:12;;;;;;;12.07;10.20;;;;;;;;;;5018454;28;20042;-73
2023/07/28 04:55:38;;;;;;;15.70;10.60;;;;;;;;;;4997806;28;20071;-73
2023/07/28 04:58:04;;;;;;;14.00;11.02;;;;;;;;;;5011087;28;20137;-73
2023/07/28 05:00:30;;;;;;;12.45;10.60;;;;;;;;;;5012479;28;20083;-73
2023/07/28 05:02:56;;;;;;;14.15;11.57;;;;;;;;;;5010844;28;20060;-73
2023/07/28 05:05:23;;;;;;;14.40;12.15;;;;;;;;;;5009619;28;20049;-73
2023/07/28 05:07:49;;;;;;;18.88;12.82;;;;;;;;;;5008463;28;20046;-73
2023/07/28 05:10:15;;;;;;;16.80;12.77;;;;;;;;;;5007050;28;20060;-73
2023/07/28 05:12:41;;;;;;;16.10;13.70;;;;;;;;;;5007019;28;20182;-73
2023/07/28 05:15:10;;;;;;;19.13;14.38;;;;;;;;;;5009877;28;20514;-72
2023/07/28 05:17:36;;;;;;;17.17;14.10;;;;;;;;;;5011058;28;20478;-73
2023/07/28 05:20:03;;;;;;;21.70;14.25;;;;;;;;;;5008814;28;20042;-73
2023/07/28 05:22:29;;;;;;;20.02;14.82;;;;;;;;;;5008112;28;20058;-73
2023/07/28 05:24:55;;;;;;;18.73;13.52;;;;;;;;;;5008303;28;20049;-73
2023/07/28 05:27:21;;;;;;;18.88;13.55;;;;;;;;;;5009985;28;20058;-73
2023/07/28 05:29:47;;;;;;;17.90;13.10;;;;;;;;;;4997482;28;20063;-73
2023/07/28 05:32:13;;;;;;;16.90;13.52;;;;;;;;;;4997961;28;20050;-73
2023/07/28 05:34:42;;;;;;;20.38;14.60;;;;;;;;;;5023661;28;20149;-73
2023/07/28 05:37:08;;;;;;;16.00;13.55;;;;;;;;;;5011867;28;20049;-73
2023/07/28 05:39:34;;;;;;;15.48;13.88;;;;;;;;;;5009435;28;20038;-73
2023/07/28 05:42:00;;;;;;;18.55;13.82;;;;;;;;;;5007393;28;20045;-73
2023/07/28 05:44:26;;;;;;;16.73;14.85;;;;;;;;;;5010612;28;20077;-73
2023/07/28 05:46:52;;;;;;;19.10;14.48;;;;;;;;;;4996153;28;20137;-73
2023/07/28 05:49:18;;;;;;;18.70;15.20;;;;;;;;;;5003938;28;20486;-73
2023/07/28 05:51:44;;;;;;;15.27;13.38;;;;;;;;;;5004249;28;20491;-73
2023/07/28 05:54:12;;;;;;;13.35;11.95;;;;;;;;;;4993730;28;20042;-73
2023/07/28 05:56:38;;;;;;;15.65;13.80;;;;;;;;;;4999520;28;20053;-73
2023/07/28 05:59:05;;;;;;;17.40;14.50;;;;;;;;;;5008127;28;20085;-73
2023/07/28 06:01:31;;;;;;;15.35;13.65;;;;;;;;;;4992179;28;20050;-73
2023/07/28 06:03:59;;;;;;;16.00;12.68;;;;;;;;;;5008787;28;20073;-73
2023/07/28 06:06:26;;;;;;;15.32;12.23;;;;;;;;;;5010139;28;20191;-73
2023/07/28 06:08:52;;;;;;;16.20;13.32;;;;;;;;;;5006428;28;20073;-73
2023/07/28 06:11:19;;;;;;;14.68;12.48;;;;;;;;;;5010274;28;20069;-73
2023/07/28 06:13:46;;;;;;;14.05;12.55;;;;;;;;;;5008329;28;20056;-73
2023/07/28 06:16:12;;;;;;;14.88;11.82;;;;;;;;;;5008198;28;20054;-73
2023/07/28 06:18:38;;;;;;;12.85;11.35;;;;;;;;;;5014710;28;20057;-73
2023/07/28 06:21:04;;;;;;;14.15;11.30;;;;;;;;;;5015370;28;20034;-73
2023/07/28 06:23:30;;;;;;;13.75;11.98;;;;;;;;;;5011455;28;20401;-73
2023/07/28 06:25:56;;;;;;;12.63;11.32;;;;;;;;;;5012971;28;20383;-73
2023/07/28 06:28:22;;;;;;;12.90;11.15;;;;;;;;;;5011449;28;20347;-73
2023/07/28 06:30:53;;;;;;;13.57;12.05;;;;;;;;;;5012326;28;20041;-73
2023/07/28 06:33:19;;;;;;;11.82;10.65;;;;;;;;;;5014738;28;20088;-73
2023/07/28 06:35:45;;;;;;;13.77;11.10;;;;;;;;;;5011005;28;20081;-73
2023/07/28 06:38:12;;;;;;;12.38;10.90;;;;;;;;;;5012660;28;20500;-73
2023/07/28 06:40:38;;;;;;;12.30;11.07;;;;;;;;;;5014050;28;20165;-73
2023/07/28 06:43:04;;;;;;;11.43;9.90;;;;;;;;;;5014356;28;20042;-73
2023/07/28 06:45:30;;;;;;;10.35;8.88;;;;;;;;;;5013841;28;20057;-73
2023/07/28 06:47:56;;;;;;;11.80;9.88;;;;;;;;;;5012912;28;20091;-73
2023/07/28 06:50:22;;;;;;;10.23;9.05;;;;;;;;;;5010998;28;20072;-73
2023/07/28 06:52:48;;;;;;;12.43;10.30;;;;;;;;;;5013426;28;20037;-73
2023/07/28 06:55:15;;;;;;;11.77;10.18;;;;;;;;;;5013270;28;20517;-73
2023/07/28 06:57:41;;;;;;;10.38;9.40;;;;;;;;;;5012900;28;20065;-73
2023/07/28 07:00:09;;;;;;;12.98;9.73;;;;;;;;;;5013452;28;20046;-73
2023/07/28 07:02:35;;;;;;;10.95;9.73;;;;;;;;;;4993310;28;20060;-73
2023/07/28 07:05:01;;;;;;;11.13;9.60;;;;;;;;;;4994899;28;20069;-74
2023/07/28 07:07:27;;;;;;;10.98;9.77;;;;;;;;;;5005604;28;20502;-73
2023/07/28 07:09:53;;;;;;;11.25;9.82;;;;;;;;;;5012035;28;20104;-73
2023/07/28 07:12:21;;;;;;;11.90;10.35;;;;;;;;;;5013179;28;20045;-70
2023/07/28 07:14:47;;;;;;;15.43;10.52;;;;;;;;;;5014018;28;20565;-73
2023/07/28 07:17:13;;;;;;;11.52;10.40;;;;;;;;;;5012897;28;20058;-73
2023/07/28 07:19:39;;;;;;;12.52;10.75;;;;;;;;;;5013495;28;20077;-73
2023/07/28 07:22:06;;;;;;;14.95;11.57;;;;;;;;;;5014856;28;20482;-73
2023/07/28 07:24:32;;;;;;;12.13;10.77;;;;;;;;;;5005629;28;20073;-73
2023/07/28 07:26:58;;;;;;;13.20;10.73;;;;;;;;;;5010122;28;20050;-73
2023/07/28 07:29:24;;;;;;;11.27;9.82;;;;;;;;;;4994772;28;20092;-73
2023/07/28 07:31:54;;;;;;;11.77;9.95;;;;;;;;;;4991305;28;20046;-73
2023/07/28 07:34:21;;;;;;;10.85;9.18;;;;;;;;;;4994754;28;20053;-73
2023/07/28 07:36:47;;;;;;;10.80;9.77;;;;;;;;;;4993546;28;20508;-72
2023/07/28 07:39:13;;;;;;;10.15;8.45;;;;;;;;;;4993381;28;20126;-73
2023/07/28 07:41:39;;;;;;;11.57;8.98;;;;;;;;;;4992973;28;20060;-73
2023/07/28 07:44:05;;;;;;;10.30;9.38;;;;;;;;;;4977521;28;20134;-73
2023/07/28 07:46:31;;;;;;;11.73;9.65;;;;;;;;;;4976107;28;20497;-73
2023/07/28 07:48:57;;;;;;;10.57;9.52;;;;;;;;;;4992483;28;20525;-73
2023/07/28 07:51:23;;;;;;;9.80;8.80;;;;;;;;;;4976876;28;20391;-74
2023/07/28 07:53:50;;;;;;;11.95;9.10;;;;;;;;;;4976567;28;20053;-73
2023/07/28 07:56:16;;;;;;;10.20;9.20;;;;;;;;;;4994298;28;20104;-73
2023/07/28 07:58:42;;;;;;;10.38;9.38;;;;;;;;;;4974974;28;20415;-73
2023/07/28 08:01:08;;;;;;;10.15;8.65;;;;;;;;;;4993790;28;20074;-73
2023/07/28 08:03:38;;;;;;;9.05;8.15;;;;;;;;;;4993854;28;20522;-73
2023/07/28 08:06:04;;;;;;;9.45;8.55;;;;;;;;;;4992428;28;20042;-74
2023/07/28 08:08:30;;;;;;;8.63;7.75;;;;;;;;;;4975956;28;20042;-73
2023/07/28 08:10:56;;;;;;;9.13;8.10;;;;;;;;;;4976273;28;20050;-73
2023/07/28 08:13:22;;;;;;;13.13;8.77;;;;;;;;;;4992508;28;20452;-73
2023/07/28 08:15:48;;;;;;;12.02;9.55;;;;;;;;;;4975334;28;20050;-73
2023/07/28 08:18:14;;;;;;;10.93;9.30;;;;;;;;;;4977068;28;20047;-73
2023/07/28 08:20:41;;;;;;;10.13;9.10;;;;;;;;;;4993014;28;20137;-73
2023/07/28 08:23:07;;;;;;;13.43;9.90;;;;;;;;;;4991676;28;20046;-73
2023/07/28 08:25:34;;;;;;;10.30;9.20;;;;;;;;;;4993653;28;20054;-73
2023/07/28 08:28:00;;;;;;;12.15;9.65;;;;;;;;;;5002339;28;20050;-73
2023/07/28 08:30:26;;;;;;;11.82;9.48;;;;;;;;;;5011790;28;20461;-73
2023/07/28 08:32:52;;;;;;;9.68;8.68;;;;;;;;;;5010923;28;20891;-73
2023/07/28 08:35:18;;;;;;;10.52;9.25;;;;;;;;;;5011250;28;20548;-73
2023/07/28 08:37:45;;;;;;;11.18;9.27;;;;;;;;;;4997887;28;20049;-73
2023/07/28 08:40:11;;;;;;;12.43;9.63;;;;;;;;;;5007453;28;20453;-73
2023/07/28 08:42:38;;;;;;;12.15;9.82;;;;;;;;;;4999284;28;20093;-73
2023/07/28 08:45:05;;;;;;;11.48;8.90;;;;;;;;;;4994331;28;20050;-74
2023/07/28 08:47:32;;;;;;;10.23;8.95;;;;;;;;;;5012327;28;20077;-73
2023/07/28 08:49:58;;;;;;;12.38;9.23;;;;;;;;;;5010536;28;20092;-73
2023/07/28 08:52:24;;;;;;;9.20;8.27;;;;;;;;;;5012063;28;20045;-73
2023/07/28 08:54:51;;;;;;;10.00;9.00;;;;;;;;;;5010562;28;20046;-73
2023/07/28 08:57:19;;;;;;;10.88;9.55;;;;;;;;;;5011319;28;20045;-73
2023/07/28 08:59:48;;;;;;;11.00;9.90;;;;;;;;;;5007979;28;20057;-73
2023/07/28 09:02:15;;;;;;;9.68;8.77;;;;;;;;;;5012353;28;20054;-74
2023/07/28 09:04:42;;;;;;;10.57;9.52;;;;;;;;;;5002099;28;20124;-73
2023/07/28 09:07:08;;;;;;;9.55;8.55;;;;;;;;;;5012066;28;20512;-73
2023/07/28 09:09:36;;;;;;;9.05;8.13;;;;;;;;;;5012862;28;20080;-74
2023/07/28 09:12:03;;;;;;;9.55;8.60;;;;;;;;;;5009364;28;20168;-74
2023/07/28 09:14:30;;;;;;;9.25;8.35;;;;;;;;;;5011404;28;20099;-73
2023/07/28 09:17:06;;;;;;;10.05;8.45;;;;;;;;;;5006470;28;20577;-73
2023/07/28 09:19:32;;;;;;;9.75;8.07;;;;;;;;;;5009764;28;20396;-74
2023/07/28 09:21:59;;;;;;;9.95;8.02;;;;;;;;;;5009974;28;20060;-73
2023/07/28 09:24:31;;;;;;;7.72;7.03;;;;;;;;;;5004457;28;20044;-73
2023/07/28 09:26:58;;;;;;;9.95;7.50;;;;;;;;;;5007199;28;20118;-73
2023/07/28 09:29:24;;;;;;;10.60;8.15;;;;;;;;;;4998459;28;20493;-74
2023/07/28 09:31:51;;;;;;;8.90;8.00;;;;;;;;;;5009639;28;20128;-73
2023/07/28 09:34:26;;;;;;;10.57;7.32;;;;;;;;;;5012094;28;20049;-73
2023/07/28 09:36:54;;;;;;;9.77;8.27;;;;;;;;;;5009984;28;20456;-73
2023/07/28 09:39:20;;;;;;;8.35;7.50;;;;;;;;;;5011589;28;20046;-73
2023/07/28 09:41:47;;;;;;;9.02;7.78;;;;;;;;;;5003172;28;20050;-73
2023/07/28 09:44:13;;;;;;;10.95;9.20;;;;;;;;;;5011396;28;20405;-73
2023/07/28 09:46:50;;;;;;;9.20;8.30;;;;;;;;;;4994372;28;20054;-73
2023/07/28 09:49:16;;;;;;;8.95;8.05;;;;;;;;;;4992671;28;20109;-73
2023/07/28 09:51:46;;;;;;;11.35;8.77;;;;;;;;;;5009350;28;20468;-73
2023/07/28 09:54:13;;;;;;;11.18;9.68;;;;;;;;;;5005373;28;20054;-73
2023/07/28 09:56:39;;;;;;;10.82;9.23;;;;;;;;;;5016766;28;20050;-74
2023/07/28 09:59:13;;;;;;;10.15;9.10;;;;;;;;;;5001394;28;20048;-74
2023/07/28 10:01:40;;;;;;;12.00;10.77;;;;;;;;;;5006480;28;20068;-74
2023/07/28 10:04:06;;;;;;;11.32;10.15;;;;;;;;;;5002837;28;20076;-74
2023/07/28 10:06:33;;;;;;;13.18;9.88;;;;;;;;;;5008981;28;20494;-74
2023/07/28 10:09:00;;;;;;;10.82;9.82;;;;;;;;;;5009730;28;20441;-74
2023/07/28 10:11:26;;;;;;;12.77;9.38;;;;;;;;;;5010666;28;20097;-74
2023/07/28 10:13:54;;;;;;;10.45;9.30;;;;;;;;;;5005984;28;20276;-74
2023/07/28 10:16:20;;;;;;;9.80;8.68;;;;;;;;;;5010739;28;20045;-74
2023/07/28 10:18:54;;;;;;;10.02;7.85;;;;;;;;;;5009509;28;20046;-74
2023/07/28 10:21:20;;;;;;;9.93;8.70;;;;;;;;;;5003958;28;20038;-74
2023/07/28 10:23:53;;;;;;;10.55;9.10;;;;;;;;;;5006948;28;20042;-74
2023/07/28 10:26:31;;;;;;;8.57;7.65;;;;;;;;;;5000472;28;20045;-74
2023/07/28 10:29:08;;;;;;;10.73;7.78;;;;;;;;;;5010780;28;20061;-74
2023/07/28 10:31:34;;;;;;;9.55;7.85;;;;;;;;;;4983676;28;20542;-74
2023/07/28 10:34:00;;;;;;;8.43;6.97;;;;;;;;;;5010443;28;20045;-74
2023/07/28 10:36:26;;;;;;;8.27;5.80;;;;;;;;;;5010698;28;20050;-74
2023/07/28 10:39:03;;;;;;;7.00;5.68;;;;;;;;;;4980443;28;20049;-74
2023/07/28 10:41:30;;;;;;;9.48;6.10;;;;;;;;;;4973480;28;20054;-73
2023/07/28 10:43:56;;;;;;;7.07;5.13;;;;;;;;;;4995172;28;20042;-74
2023/07/28 10:46:22;;;;;;;8.35;6.22;;;;;;;;;;4955602;28;20142;-74
2023/07/28 10:48:50;;;;;;;11.75;6.15;;;;;;;;;;4966382;28;20054;-74
2023/07/28 10:51:24;;;;;;;8.65;6.22;;;;;;;;;;4991202;28;20069;-74
2023/07/28 10:53:51;;;;;;;8.07;5.10;;;;;;;;;;4981943;28;20062;-74
2023/07/28 10:56:18;;;;;;;5.82;4.22;;;;;;;;;;4978797;28;20132;-74
2023/07/28 10:58:44;;;;;;;7.07;4.32;;;;;;;;;;4990793;28;20153;-74
2023/07/28 11:01:11;;;;;;;4.72;3.92;;;;;;;;;;4972577;28;20046;-74
2023/07/28 11:03:37;;;;;;;4.38;3.60;;;;;;;;;;4986194;28;20042;-74
2023/07/28 11:06:05;;;;;;;4.80;3.75;;;;;;;;;;4995219;28;20057;-74
2023/07/28 11:08:34;;;;;;;4.82;3.78;;;;;;;;;;4996512;28;20054;-74
2023/07/28 11:11:02;;;;;;;4.75;3.67;;;;;;;;;;4976394;28;20050;-74
2023/07/28 11:13:28;;;;;;;4.55;3.60;;;;;;;;;;4978043;28;20065;-75
2023/07/28 11:15:55;;;;;;;5.82;3.60;;;;;;;;;;4974601;28;20046;-75
2023/07/28 11:18:21;;;;;;;4.55;3.78;;;;;;;;;;4957773;28;20513;-74
2023/07/28 11:20:47;;;;;;;3.55;3.20;;;;;;;;;;4957857;28;20058;-74
2023/07/28 11:23:15;;;;;;;6.05;3.58;;;;;;;;;;4971451;28;20042;-74
2023/07/28 11:25:41;;;;;;;3.92;3.33;;;;;;;;;;4993446;28;20054;-75
2023/07/28 11:28:08;;;;;;;5.00;3.22;;;;;;;;;;4994660;28;20057;-75
2023/07/28 11:30:38;;;;;;;4.00;3.28;;;;;;;;;;4993169;28;20528;-74
2023/07/28 11:33:04;;;;;;;4.63;3.45;;;;;;;;;;4998406;28;20497;-74
2023/07/28 11:35:30;;;;;;;4.53;3.30;;;;;;;;;;4995153;28;20038;-74
2023/07/28 11:37:57;;;;;;;6.50;4.38;;;;;;;;;;4998919;28;20056;-74
2023/07/28 11:40:25;;;;;;;5.40;3.58;;;;;;;;;;5009162;28;20088;-74
2023/07/28 11:42:52;;;;;;;4.38;3.97;;;;;;;;;;5012320;28;20049;-75
2023/07/28 11:45:19;;;;;;;4.07;3.50;;;;;;;;;;4997662;28;20058;-75
2023/07/28 11:47:59;;;;;;;4.85;3.65;;;;;;;;;;5008217;28;20046;-74
2023/07/28 11:50:25;;;;;;;6.03;3.47;;;;;;;;;;5009764;28;20057;-75
2023/07/28 11:52:51;;;;;;;4.53;3.55;;;;;;;;;;4998709;28;20053;-74
2023/07/28 11:55:17;;;;;;;4.60;3.70;;;;;;;;;;5004538;28;20050;-74
2023/07/28 11:57:44;;;;;;;3.63;3.30;;;;;;;;;;5006144;28;20057;-75
2023/07/28 12:00:12;;;;;;;4.18;3.60;;;;;;;;;;4994705;28;20561;-75
2023/07/28 12:02:38;;;;;;;4.47;3.60;;;;;;;;;;5006106;28;20104;-74
2023/07/28 12:05:12;;;;;;;4.05;3.65;;;;;;;;;;4997964;28;20049;-74
2023/07/28 12:07:38;;;;;;;6.07;4.00;;;;;;;;;;5011481;28;20046;-74
2023/07/28 12:10:06;;;;;;;4.80;3.50;;;;;;;;;;5012734;28;20136;-74
2023/07/28 12:12:40;;;;;;;4.07;3.78;;;;;;;;;;5012737;28;20046;-75
2023/07/28 12:15:19;;;;;;;4.72;4.00;;;;;;;;;;5006578;28;20398;-74
2023/07/28 12:18:01;;;;;;;4.00;3.45;;;;;;;;;;4993014;28;20262;-74
2023/07/28 12:20:27;;;;;;;5.57;4.07;;;;;;;;;;5010600;28;20437;-74
2023/07/28 12:22:53;;;;;;;8.52;3.42;;;;;;;;;;5013228;28;20046;-74
2023/07/28 12:25:19;;;;;;;5.53;3.90;;;;;;;;;;5010823;28;20087;-75
2023/07/28 12:27:45;;;;;;;4.95;3.97;;;;;;;;;;5009866;28;20399;-74
2023/07/28 12:30:11;;;;;;;7.50;3.90;;;;;;;;;;4995116;28;20042;-74
2023/07/28 12:32:38;;;;;;;3.78;3.40;;;;;;;;;;5011731;28;20561;-75
2023/07/28 12:35:04;;;;;;;6.13;3.63;;;;;;;;;;5011463;28;20481;-74
2023/07/28 12:37:30;;;;;;;5.05;3.92;;;;;;;;;;5012100;28;20054;-74
2023/07/28 12:39:57;;;;;;;4.72;3.67;;;;;;;;;;5006772;28;20054;-74
2023/07/28 12:42:23;;;;;;;6.40;4.43;;;;;;;;;;4998877;28;20077;-74
2023/07/28 12:44:49;;;;;;;5.15;4.30;;;;;;;;;;5006453;28;20041;-74
2023/07/28 12:47:15;;;;;;;4.30;3.90;;;;;;;;;;4994696;28;20046;-75
2023/07/28 12:49:41;;;;;;;4.75;4.10;;;;;;;;;;4990894;28;20100;-75
2023/07/28 12:52:08;;;;;;;5.72;3.85;;;;;;;;;;5010449;28;20315;-75
2023/07/28 12:54:35;;;;;;;5.30;3.80;;;;;;;;;;5004354;28;20046;-75
2023/07/28 12:57:01;;;;;;;4.20;3.83;;;;;;;;;;5007029;28;20129;-75
2023/07/28 12:59:29;;;;;;;5.10;3.67;;;;;;;;;;5007946;28;20101;-75
2023/07/28 13:01:55;;;;;;;5.03;3.35;;;;;;;;;;5011155;28;20478;-75
2023/07/28 13:04:21;;;;;;;5.78;3.40;;;;;;;;;;4997736;28;20049;-74
2023/07/28 13:06:47;;;;;;;4.95;3.10;;;;;;;;;;5004626;28;20516;-75
2023/07/28 13:09:13;;;;;;;3.83;3.53;;;;;;;;;;5011305;28;20045;-75
2023/07/28 13:11:39;;;;;;;3.92;3.53;;;;;;;;;;5012489;28;20056;-75
2023/07/28 13:14:05;;;;;;;4.38;2.95;;;;;;;;;;5004876;28;20495;-75
2023/07/28 13:16:32;;;;;;;3.55;2.80;;;;;;;;;;5010148;28;20057;-75
2023/07/28 13:18:59;;;;;;;4.35;3.00;;;;;;;;;;4998264;28;20043;-75
2023/07/28 13:21:25;;;;;;;3.13;2.80;;;;;;;;;;4996265;28;20053;-75
2023/07/28 13:23:51;;;;;;;3.40;2.83;;;;;;;;;;5008890;28;20076;-75
2023/07/28 13:26:17;;;;;;;3.20;2.90;;;;;;;;;;5011442;28;20061;-75
2023/07/28 13:28:46;;;;;;;5.75;3.28;;;;;;;;;;5012191;28;20061;-75
2023/07/28 13:31:13;;;;;;;3.67;2.90;;;;;;;;;;5011650;28;20053;-75
2023/07/28 13:33:39;;;;;;;3.33;3.00;;;;;;;;;;5010943;28;20048;-75
2023/07/28 13:36:07;;;;;;;2.78;2.58;;;;;;;;;;5010892;28;20132;-75
2023/07/28 13:38:36;;;;;;;3.20;2.88;;;;;;;;;;5003625;28;20050;-75
2023/07/28 13:41:05;;;;;;;3.20;2.80;;;;;;;;;;5010244;28;20451;-75
2023/07/28 13:43:31;;;;;;;3.00;2.70;;;;;;;;;;5008403;28;20065;-75
2023/07/28 13:45:57;;;;;;;3.05;2.70;;;;;;;;;;5008460;28;20531;-75
2023/07/28 13:48:24;;;;;;;3.35;2.67;;;;;;;;;;5008830;28;20058;-75
2023/07/28 13:50:50;;;;;;;3.63;2.70;;;;;;;;;;5012181;28;20046;-75
2023/07/28 13:53:16;;;;;;;3.22;2.50;;;;;;;;;;5000982;28;20090;-75
2023/07/28 13:55:42;;;;;;;2.65;2.42;;;;;;;;;;5009737;28;20137;-75
2023/07/28 13:58:08;;;;;;;2.97;2.70;;;;;;;;;;5002315;28;20042;-75
2023/07/28 14:00:34;;;;;;;2.50;2.30;;;;;;;;;;5008271;28;20042;-75
2023/07/28 14:03:00;;;;;;;4.47;2.72;;;;;;;;;;4994696;28;20042;-75
2023/07/28 14:05:26;;;;;;;4.35;2.80;;;;;;;;;;5009990;28;20042;-75
2023/07/28 14:07:52;;;;;;;2.95;2.33;;;;;;;;;;5009349;28;20393;-75
2023/07/28 14:10:18;;;;;;;3.75;2.72;;;;;;;;;;5011948;28;20046;-75
2023/07/28 14:12:44;;;;;;;3.67;2.60;;;;;;;;;;5009303;28;20132;-75
2023/07/28 14:15:10;;;;;;;5.55;3.65;;;;;;;;;;5009670;28;20488;-75
2023/07/28 14:17:36;;;;;;;5.30;3.95;;;;;;;;;;4992114;28;20522;-75
2023/07/28 14:20:02;;;;;;;3.90;3.38;;;;;;;;;;4991731;28;20425;-75
2023/07/28 14:22:28;;;;;;;4.57;3.78;;;;;;;;;;4992377;28;20057;-75
2023/07/28 14:24:54;;;;;;;4.95;3.40;;;;;;;;;;5002102;28;20042;-75
2023/07/28 14:27:20;;;;;;;4.18;3.38;;;;;;;;;;5010556;28;20528;-75
2023/07/28 14:29:46;;;;;;;5.43;3.45;;;;;;;;;;5010684;28;20250;-75
2023/07/28 14:32:12;;;;;;;4.53;4.00;;;;;;;;;;4993249;28;20065;-75